createdAt,value
2022-09-23T00:01:23.635Z,77.15
2022-09-23T00:04:25.908Z,77.30
2022-09-23T00:07:27.705Z,77.12
2022-09-23T00:10:32.895Z,77.09
2022-09-23T00:13:36.366Z,76.98
2022-09-23T00:16:38.333Z,76.90
2022-09-23T00:19:40.439Z,76.62
2022-09-23T00:22:42.278Z,76.72
2022-09-23T00:25:44.165Z,76.75
2022-09-23T00:28:46.697Z,76.47
2022-09-23T00:31:48.451Z,76.58
2022-09-23T00:34:51.554Z,76.44
2022-09-23T00:37:53.345Z,76.44
2022-09-23T00:40:55.231Z,76.55
2022-09-23T00:43:59.612Z,76.76
2022-09-23T00:47:01.580Z,76.63
2022-09-23T00:50:14.091Z,76.49
2022-09-23T00:53:21.181Z,76.70
2022-09-23T00:56:24.411Z,76.76
2022-09-23T00:59:29.064Z,76.59
2022-09-23T01:02:31.682Z,77.11
2022-09-23T01:05:34.410Z,76.77
2022-09-23T01:08:36.437Z,76.86
2022-09-23T01:11:40.983Z,76.82
2022-09-23T01:15:06.679Z,76.85
2022-09-23T01:18:32.771Z,76.90
2022-09-23T01:21:48.409Z,77.02
2022-09-23T01:25:16.414Z,77.40
2022-09-23T01:28:54.556Z,77.74
2022-09-23T01:32:15.165Z,77.65
2022-09-23T01:35:25.913Z,77.80
2022-09-23T01:38:46.594Z,77.90
2022-09-23T01:41:57.444Z,78.07
2022-09-23T01:45:10.997Z,78.94
2022-09-23T01:48:18.877Z,79.57
2022-09-23T01:51:23.873Z,79.13
2022-09-23T01:54:34.301Z,79.26
2022-09-23T01:57:53.420Z,79.15
2022-09-23T02:01:01.184Z,79.33
2022-09-23T02:04:31.014Z,79.04
2022-09-23T02:07:42.515Z,79.28
2022-09-23T02:10:49.185Z,79.12
2022-09-23T02:14:07.012Z,79.56
2022-09-23T02:17:13.831Z,79.55
2022-09-23T02:20:22.162Z,79.60
2022-09-23T02:23:26.675Z,79.48
2022-09-23T02:26:38.646Z,79.43
2022-09-23T02:29:49.418Z,79.71
2022-09-23T02:33:24.608Z,80.38
2022-09-23T02:36:46.020Z,79.66
2022-09-23T02:40:09.097Z,79.59
2022-09-23T02:43:19.898Z,79.62
2022-09-23T02:46:23.242Z,79.50
2022-09-23T02:49:28.245Z,79.53
2022-09-23T02:52:30.090Z,79.53
2022-09-23T02:55:32.428Z,79.79
2022-09-23T02:58:34.633Z,79.65
2022-09-23T03:02:01.215Z,79.79
2022-09-23T03:05:30.290Z,79.95
2022-09-23T03:08:51.186Z,80.19
2022-09-23T03:12:15.849Z,80.44
2022-09-23T03:15:23.342Z,80.82
2022-09-23T03:18:46.642Z,80.49
2022-09-23T03:21:56.824Z,81.84
2022-09-23T03:25:07.168Z,80.63
2022-09-23T03:28:09.987Z,80.53
2022-09-23T03:31:13.255Z,80.96
2022-09-23T03:34:22.842Z,80.75
2022-09-23T03:37:36.021Z,80.68
2022-09-23T03:40:44.085Z,80.78
2022-09-23T03:43:46.432Z,80.64
2022-09-23T03:46:51.158Z,80.66
2022-09-23T03:49:54.058Z,80.95
2022-09-23T03:52:55.810Z,81.42
2022-09-23T03:55:57.535Z,81.61
2022-09-23T03:58:59.402Z,81.27
2022-09-23T04:02:02.644Z,81.50
2022-09-23T04:05:05.274Z,81.92
2022-09-23T04:08:07.117Z,81.78
2022-09-23T04:11:08.959Z,81.88
2022-09-23T04:14:12.240Z,82.33
2022-09-23T04:17:14.260Z,82.09
2022-09-23T04:20:17.339Z,81.88
2022-09-23T04:23:19.188Z,81.87
2022-09-23T04:26:21.002Z,82.24
2022-09-23T04:29:24.213Z,82.00
2022-09-23T04:32:26.138Z,81.82
2022-09-23T04:35:27.967Z,81.83
2022-09-23T04:38:29.733Z,82.31
2022-09-23T04:41:31.809Z,82.16
2022-09-23T04:44:34.889Z,81.92
2022-09-23T04:47:37.398Z,81.82
2022-09-23T04:50:39.433Z,81.86
2022-09-23T04:53:43.432Z,81.64
2022-09-23T04:56:45.230Z,81.83
2022-09-23T04:59:47.335Z,81.94
2022-09-23T05:02:50.586Z,81.93
2022-09-23T05:05:53.009Z,81.94
2022-09-23T05:08:56.244Z,81.85
2022-09-23T05:11:58.358Z,81.95
2022-09-23T05:15:00.671Z,82.01
2022-09-23T05:18:02.620Z,82.18
2022-09-23T05:21:04.688Z,82.09
2022-09-23T05:24:07.475Z,82.19
2022-09-23T05:27:09.394Z,82.30
2022-09-23T05:30:11.793Z,82.40
2022-09-23T05:33:14.213Z,82.32
2022-09-23T05:36:19.974Z,83.13
2022-09-23T05:39:21.851Z,82.55
2022-09-23T05:42:24.173Z,82.55
2022-09-23T05:45:27.390Z,82.60
2022-09-23T05:48:34.141Z,82.44
2022-09-23T05:51:35.989Z,82.41
2022-09-23T05:54:39.716Z,82.24
2022-09-23T05:57:41.455Z,82.26
2022-09-23T06:00:44.207Z,82.19
2022-09-23T06:03:49.875Z,82.07
2022-09-23T06:06:51.645Z,82.29
2022-09-23T06:09:54.285Z,82.06
2022-09-23T06:12:56.162Z,81.98
2022-09-23T06:15:58.319Z,82.14
2022-09-23T06:19:06.217Z,82.31
2022-09-23T06:22:10.888Z,82.11
2022-09-23T06:25:13.040Z,81.88
2022-09-23T06:28:15.712Z,81.98
2022-09-23T06:31:17.917Z,82.27
2022-09-23T06:34:21.132Z,82.08
2022-09-23T06:37:24.283Z,81.99
2022-09-23T06:40:26.718Z,81.93
2022-09-23T06:43:29.213Z,82.03
2022-09-23T06:46:31.871Z,82.18
2022-09-23T06:49:33.971Z,82.36
2022-09-23T06:52:35.768Z,81.95
2022-09-23T06:55:37.712Z,81.80
2022-09-23T06:58:40.507Z,81.81
2022-09-23T07:01:42.532Z,81.85
2022-09-23T07:04:44.862Z,81.79
2022-09-23T07:07:46.584Z,81.58
2022-09-23T07:10:53.841Z,81.82
2022-09-23T07:13:57.247Z,81.72
2022-09-23T07:16:59.985Z,81.85
2022-09-23T07:20:02.193Z,81.69
2022-09-23T07:23:04.839Z,81.76
2022-09-23T07:26:08.770Z,81.51
2022-09-23T07:29:13.179Z,81.65
2022-09-23T07:32:15.997Z,81.65
2022-09-23T07:35:19.433Z,82.03
2022-09-23T07:38:22.414Z,81.93
2022-09-23T07:41:26.041Z,82.25
2022-09-23T07:44:29.237Z,82.19
2022-09-23T07:47:31.600Z,82.28
2022-09-23T07:50:33.844Z,82.06
2022-09-23T07:53:37.076Z,82.03
2022-09-23T07:56:41.843Z,81.80
2022-09-23T07:59:44.193Z,82.07
2022-09-23T08:02:49.588Z,81.77
2022-09-23T08:05:54.644Z,81.84
2022-09-23T08:09:00.812Z,81.60
2022-09-23T08:12:03.598Z,81.10
2022-09-23T08:15:06.136Z,80.63
2022-09-23T08:18:09.962Z,80.61
2022-09-23T08:21:12.693Z,80.05
2022-09-23T08:24:17.790Z,79.54
2022-09-23T08:27:19.937Z,79.32
2022-09-23T08:30:22.070Z,79.42
2022-09-23T08:33:24.529Z,79.15
2022-09-23T08:36:27.529Z,79.18
2022-09-23T08:39:29.332Z,78.74
2022-09-23T08:42:35.880Z,78.08
2022-09-23T08:45:40.539Z,77.87
2022-09-23T08:48:47.623Z,77.59
2022-09-23T08:51:51.330Z,77.39
2022-09-23T08:54:55.669Z,77.44
2022-09-23T08:58:25.899Z,76.92
2022-09-23T09:01:48.235Z,77.48
2022-09-23T09:05:06.094Z,77.37
2022-09-23T09:08:11.840Z,77.14
2022-09-23T09:11:16.805Z,77.37
2022-09-23T09:14:28.854Z,77.83
2022-09-23T09:17:44.382Z,77.90
2022-09-23T09:21:11.633Z,78.02
2022-09-23T09:24:33.842Z,77.32
2022-09-23T09:27:40.731Z,76.61
2022-09-23T09:30:48.315Z,75.71
2022-09-23T09:34:06.303Z,75.49
2022-09-23T09:37:18.221Z,74.46
2022-09-23T09:40:21.288Z,74.52
2022-09-23T09:43:25.530Z,73.04
2022-09-23T09:46:47.321Z,71.03
2022-09-23T09:50:14.202Z,71.98
2022-09-23T09:53:27.806Z,72.24
2022-09-23T09:56:34.994Z,72.05
2022-09-23T09:59:42.075Z,72.48
2022-09-23T10:02:47.815Z,72.40
2022-09-23T10:05:53.849Z,72.12
2022-09-23T10:09:10.629Z,72.21
2022-09-23T10:12:18.525Z,72.17
2022-09-23T10:15:44.462Z,72.09
2022-09-23T10:18:46.876Z,72.31
2022-09-23T10:21:57.010Z,72.09
2022-09-23T10:25:03.760Z,71.86
2022-09-23T10:28:41.726Z,71.74
2022-09-23T10:31:45.457Z,71.83
2022-09-23T10:34:52.397Z,71.70
2022-09-23T10:38:00.392Z,71.31
2022-09-23T10:41:21.223Z,71.85
2022-09-23T10:45:12.286Z,72.40
2022-09-23T10:48:36.329Z,71.86
2022-09-23T10:52:04.722Z,72.27
2022-09-23T10:55:42.901Z,71.87
2022-09-23T10:59:22.357Z,72.55
2022-09-23T11:02:50.510Z,71.48
2022-09-23T11:05:55.238Z,70.78
2022-09-23T11:09:23.266Z,69.24
2022-09-23T11:12:32.007Z,70.86
2022-09-23T11:15:52.530Z,70.86
2022-09-23T11:19:16.005Z,71.12
2022-09-23T11:22:36.236Z,70.57
2022-09-23T11:26:23.740Z,71.00
2022-09-23T11:29:36.503Z,70.27
2022-09-23T11:33:04.790Z,69.38
2022-09-23T11:36:10.675Z,69.44
2022-09-23T11:39:23.989Z,69.40
2022-09-23T11:42:31.582Z,69.18
2022-09-23T11:45:41.982Z,69.56
2022-09-23T11:48:57.862Z,69.44
2022-09-23T11:52:08.860Z,68.94
2022-09-23T11:55:31.932Z,68.47
2022-09-23T11:58:50.014Z,68.11
2022-09-23T12:02:15.781Z,67.78
2022-09-23T12:05:26.882Z,67.91
2022-09-23T12:08:34.475Z,67.07
2022-09-23T12:11:50.579Z,66.61
2022-09-23T12:15:14.318Z,65.95
2022-09-23T12:19:08.536Z,66.33
2022-09-23T12:22:30.889Z,65.56
2022-09-23T12:25:47.264Z,65.39
2022-09-23T12:28:59.228Z,64.68
2022-09-23T12:32:09.882Z,64.17
2022-09-23T12:35:24.101Z,63.35
2022-09-23T12:38:35.197Z,64.20
2022-09-23T12:41:41.430Z,63.05
2022-09-23T12:44:55.130Z,63.20
2022-09-23T12:48:19.668Z,63.09
2022-09-23T12:51:44.729Z,62.98
2022-09-23T12:54:50.132Z,63.54
2022-09-23T12:57:52.046Z,63.43
2022-09-23T13:01:10.383Z,62.29
2022-09-23T13:04:55.042Z,63.27
2022-09-23T13:08:17.755Z,63.53
2022-09-23T13:11:28.041Z,62.87
2022-09-23T13:14:35.711Z,63.00
2022-09-23T13:17:40.006Z,62.68
2022-09-23T13:20:43.168Z,62.44
2022-09-23T13:24:12.851Z,61.57
2022-09-23T13:27:26.669Z,63.10
2022-09-23T13:30:28.893Z,62.85
2022-09-23T13:33:48.324Z,63.65
2022-09-23T13:36:50.400Z,63.28
2022-09-23T13:40:07.901Z,63.04
2022-09-23T13:43:22.131Z,63.79
2022-09-23T13:46:28.117Z,63.93
2022-09-23T13:49:34.123Z,64.41
2022-09-23T13:52:36.287Z,65.02
2022-09-23T13:55:39.595Z,64.82
2022-09-23T13:58:43.484Z,64.97
2022-09-23T14:01:47.051Z,66.31
2022-09-23T14:04:49.608Z,67.43
2022-09-23T14:07:52.836Z,67.77
2022-09-23T14:10:55.942Z,68.16
2022-09-23T14:14:00.059Z,69.05
2022-09-23T14:17:02.601Z,69.57
2022-09-23T14:20:05.629Z,69.67
2022-09-23T14:23:12.070Z,69.84
2022-09-23T14:26:14.844Z,70.26
2022-09-23T14:29:18.234Z,72.18
2022-09-23T14:32:27.126Z,70.92
2022-09-23T14:35:42.896Z,71.67
2022-09-23T14:38:50.775Z,71.60
2022-09-23T14:41:52.945Z,71.68
2022-09-23T14:44:56.432Z,72.28
2022-09-23T14:48:22.793Z,72.82
2022-09-23T14:51:47.434Z,73.11
2022-09-23T14:54:52.117Z,73.19
2022-09-23T14:58:12.402Z,73.79
2022-09-23T15:01:29.522Z,72.77
2022-09-23T15:04:33.356Z,72.77
2022-09-23T15:07:38.094Z,73.04
2022-09-23T15:10:42.816Z,73.09
2022-09-23T15:13:49.707Z,73.44
2022-09-23T15:16:53.145Z,73.78
2022-09-23T15:19:59.874Z,74.11
2022-09-23T15:23:01.887Z,74.46
2022-09-23T15:26:12.810Z,74.65
2022-09-23T15:29:17.816Z,74.89
2022-09-23T15:32:22.525Z,74.76
2022-09-23T15:35:27.189Z,74.98
2022-09-23T15:38:32.439Z,75.30
2022-09-23T15:41:34.552Z,75.47
2022-09-23T15:44:40.003Z,75.68
2022-09-23T15:47:44.395Z,75.83
2022-09-23T15:50:49.702Z,76.07
2022-09-23T15:53:52.849Z,76.19
2022-09-23T15:56:56.326Z,76.12
2022-09-23T16:00:01.694Z,75.92
2022-09-23T16:03:31.964Z,76.02
2022-09-23T16:06:36.262Z,75.88
2022-09-23T16:09:40.226Z,76.07
2022-09-23T16:12:44.806Z,75.77
2022-09-23T16:15:47.560Z,75.96
2022-09-23T16:18:52.291Z,75.84
2022-09-23T16:21:55.824Z,75.98
2022-09-23T16:24:58.118Z,76.32
2022-09-23T16:28:00.343Z,77.02
2022-09-23T16:31:04.828Z,76.81
2022-09-23T16:34:09.695Z,76.78
2022-09-23T16:37:20.615Z,76.45
2022-09-23T16:40:24.957Z,76.64
2022-09-23T16:43:32.845Z,76.89
2022-09-23T16:46:36.702Z,77.28
2022-09-23T16:49:39.924Z,77.39
2022-09-23T16:52:42.431Z,77.40
2022-09-23T16:55:47.330Z,77.80
2022-09-23T16:58:53.852Z,77.88
2022-09-23T17:02:15.804Z,78.34
2022-09-23T17:05:19.877Z,78.35
2022-09-23T17:08:23.369Z,78.44
2022-09-23T17:11:25.231Z,78.75
2022-09-23T17:14:31.199Z,79.12
2022-09-23T17:17:39.727Z,79.32
2022-09-23T17:20:43.775Z,79.46
2022-09-23T17:23:47.246Z,79.57
2022-09-23T17:26:52.764Z,79.69
2022-09-23T17:29:56.014Z,79.68
2022-09-23T17:32:58.047Z,79.78
2022-09-23T17:36:10.150Z,80.02
2022-09-23T17:39:12.860Z,80.18
2022-09-23T17:42:15.918Z,80.15
2022-09-23T17:45:23.060Z,80.30
2022-09-23T17:48:28.374Z,80.45
2022-09-23T17:51:31.388Z,80.40
2022-09-23T17:54:36.740Z,80.55
2022-09-23T17:57:39.862Z,80.60
2022-09-23T18:00:51.323Z,80.55
2022-09-23T18:04:00.153Z,80.47
2022-09-23T18:07:13.696Z,80.22
2022-09-23T18:10:18.513Z,79.93
2022-09-23T18:13:23.827Z,79.83
2022-09-23T18:19:54.291Z,80.82
2022-09-23T18:23:05.304Z,80.71
2022-09-23T18:26:15.112Z,80.69
2022-09-23T18:29:23.714Z,80.70
2022-09-23T18:32:29.526Z,80.94
2022-09-23T18:35:33.754Z,81.17
2022-09-23T18:38:40.852Z,81.12
2022-09-23T18:41:43.771Z,81.33
2022-09-23T18:44:46.415Z,81.11
2022-09-23T18:48:11.360Z,80.75
2022-09-23T18:51:25.881Z,80.45
2022-09-23T18:54:29.501Z,80.43
2022-09-23T18:57:32.522Z,80.17
2022-09-23T19:00:36.134Z,80.23
2022-09-23T19:03:38.616Z,79.75
2022-09-23T19:06:42.708Z,79.49
2022-09-23T19:09:46.710Z,79.49
2022-09-23T19:12:49.334Z,79.31
2022-09-23T19:15:51.517Z,79.41
2022-09-23T19:18:55.215Z,79.47
2022-09-23T19:22:01.484Z,79.26
2022-09-23T19:25:07.159Z,79.18
2022-09-23T19:28:11.888Z,79.19
2022-09-23T19:31:17.461Z,79.12
2022-09-23T19:34:25.736Z,78.98
2022-09-23T19:37:29.098Z,78.77
2022-09-23T19:40:32.378Z,78.80
2022-09-23T19:43:37.631Z,78.83
2022-09-23T19:46:44.607Z,79.15
2022-09-23T19:49:48.735Z,79.20
2022-09-23T19:52:53.897Z,79.14
2022-09-23T19:55:56.462Z,79.10
2022-09-23T19:58:59.572Z,79.11
2022-09-23T20:02:01.599Z,79.03
2022-09-23T20:05:03.741Z,78.71
2022-09-23T20:08:05.731Z,78.91
2022-09-23T20:11:28.091Z,79.04
2022-09-23T20:14:31.318Z,79.21
2022-09-23T20:17:33.067Z,80.21
2022-09-23T20:20:34.909Z,80.00
2022-09-23T20:23:36.927Z,80.00
2022-09-23T20:26:57.214Z,80.13
2022-09-23T20:30:00.471Z,80.37
2022-09-23T20:33:02.282Z,80.63
2022-09-23T20:36:05.559Z,80.70
2022-09-23T20:39:07.643Z,80.46
2022-09-23T20:42:09.405Z,80.64
2022-09-23T20:45:11.319Z,81.15
2022-09-23T20:48:13.163Z,81.36
2022-09-23T20:51:15.445Z,81.40
2022-09-23T20:54:20.416Z,81.37
2022-09-23T20:57:22.289Z,81.38
2022-09-23T21:00:24.117Z,81.48
2022-09-23T21:03:29.302Z,81.39
2022-09-23T21:06:31.226Z,81.69
2022-09-23T21:09:33.010Z,81.87
2022-09-23T21:12:35.253Z,82.05
2022-09-23T21:15:37.134Z,82.06
2022-09-23T21:18:39.123Z,82.02
2022-09-23T21:21:40.916Z,82.26
2022-09-23T21:25:25.867Z,82.31
2022-09-23T21:28:04.595Z,82.35
2022-09-23T21:31:08.816Z,82.42
2022-09-23T21:34:11.453Z,82.31
2022-09-23T21:37:13.343Z,82.73
2022-09-23T21:40:33.916Z,82.71
2022-09-23T21:43:38.559Z,82.71
2022-09-23T21:46:40.325Z,82.73
2022-09-23T21:49:44.835Z,82.78
2022-09-23T21:52:51.799Z,82.82
2022-09-23T21:55:54.127Z,82.76
2022-09-23T21:58:58.344Z,82.68
2022-09-23T22:02:00.176Z,82.66
2022-09-23T22:05:01.963Z,82.97
2022-09-23T22:08:03.852Z,83.03
2022-09-23T22:11:33.558Z,83.03
2022-09-23T22:14:36.183Z,83.15
2022-09-23T22:17:40.231Z,83.69
2022-09-23T22:20:43.626Z,83.54
2022-09-23T22:23:46.451Z,83.54
2022-09-23T22:26:48.314Z,83.38
2022-09-23T22:30:08.707Z,83.53
2022-09-23T22:33:10.462Z,83.38
2022-09-23T22:36:12.894Z,83.35
2022-09-23T22:39:14.849Z,83.32
2022-09-23T22:42:16.658Z,83.33
2022-09-23T22:45:18.462Z,83.59
2022-09-23T22:48:21.075Z,83.31
2022-09-23T22:51:22.887Z,83.57
2022-09-23T22:54:29.112Z,83.54
2022-09-23T22:57:34.684Z,83.59
2022-09-23T23:00:38.668Z,83.60
2022-09-23T23:03:41.774Z,83.57
2022-09-23T23:06:43.670Z,83.65
2022-09-23T23:09:45.429Z,83.40
2022-09-23T23:12:47.441Z,83.36
2022-09-23T23:15:49.421Z,83.27
2022-09-23T23:18:51.185Z,83.29
2022-09-23T23:21:53.051Z,83.13
2022-09-23T23:24:55.080Z,83.13
2022-09-23T23:27:57.929Z,83.08
2022-09-23T23:31:03.650Z,83.25
2022-09-23T23:34:07.180Z,83.26
2022-09-23T23:37:09.560Z,83.08
2022-09-23T23:40:11.428Z,82.93
2022-09-23T23:43:13.462Z,82.85
2022-09-23T23:46:15.792Z,82.54
2022-09-23T23:49:17.599Z,82.49
2022-09-23T23:52:19.322Z,82.56
2022-09-23T23:55:21.127Z,82.50
2022-09-23T23:58:22.944Z,82.51
